createdAt,value
2018-03-29T00:00:00.513Z,0
2018-03-29T00:01:00.131Z,0
2018-03-29T00:02:00.864Z,0
2018-03-29T00:03:00.979Z,0
2018-03-29T00:04:01.103Z,0
2018-03-29T00:05:01.107Z,0
2018-03-29T00:06:00.996Z,0
2018-03-29T00:07:01.002Z,0
2018-03-29T00:08:01.714Z,0
2018-03-29T00:09:01.810Z,0
2018-03-29T00:10:01.941Z,0
2018-03-29T00:11:02.343Z,0
2018-03-29T00:12:02.199Z,0
2018-03-29T00:13:02.640Z,0
2018-03-29T00:14:02.366Z,0
2018-03-29T00:15:02.745Z,0
2018-03-29T00:16:02.485Z,0
2018-03-29T00:17:02.589Z,0
2018-03-29T00:18:03.009Z,0
2018-03-29T00:19:02.592Z,0
2018-03-29T00:20:03.729Z,0
2018-03-29T00:21:03.207Z,0
2018-03-29T00:22:03.330Z,0
2018-03-29T00:23:03.171Z,0
2018-03-29T00:24:03.715Z,0
2018-03-29T00:25:03.338Z,0
2018-03-29T00:26:03.567Z,0
2018-03-29T00:27:03.597Z,0
2018-03-29T00:28:03.441Z,0
2018-03-29T00:29:23.641Z,0
2018-03-29T00:30:23.396Z,0
2018-03-29T00:31:24.084Z,0
2018-03-29T00:32:23.441Z,0
2018-03-29T00:33:23.192Z,0
2018-03-29T00:34:23.482Z,0
2018-03-29T00:35:23.904Z,0
2018-03-29T00:36:24.029Z,0
2018-03-29T00:37:23.522Z,0
2018-03-29T00:38:23.617Z,0
2018-03-29T00:39:23.914Z,0
2018-03-29T00:40:24.025Z,0
2018-03-29T00:41:23.961Z,0
2018-03-29T00:42:23.952Z,0
2018-03-29T00:43:23.714Z,0
2018-03-29T00:44:24.058Z,0
2018-03-29T00:45:23.868Z,0
2018-03-29T00:46:23.994Z,0
2018-03-29T00:47:23.987Z,0
2018-03-29T00:48:24.194Z,0
2018-03-29T00:49:24.139Z,0
2018-03-29T00:50:24.333Z,0
2018-03-29T00:51:23.921Z,0
2018-03-29T00:52:23.886Z,0
2018-03-29T00:53:24.176Z,0
2018-03-29T00:54:24.319Z,0
2018-03-29T00:55:24.386Z,0
2018-03-29T00:56:23.960Z,0
2018-03-29T00:57:24.061Z,0
2018-03-29T00:58:24.044Z,0
2018-03-29T00:59:24.162Z,0
2018-03-29T01:00:27.552Z,0
2018-03-29T01:01:27.048Z,0
2018-03-29T01:02:27.074Z,0
2018-03-29T01:03:27.877Z,0
2018-03-29T01:04:27.857Z,0
2018-03-29T01:05:28.355Z,0
2018-03-29T01:06:28.348Z,0
2018-03-29T01:07:28.830Z,0
2018-03-29T01:08:28.580Z,0
2018-03-29T01:09:29.102Z,0
2018-03-29T01:10:28.577Z,0
2018-03-29T01:11:29.069Z,0
2018-03-29T01:12:29.364Z,0
2018-03-29T01:13:29.384Z,0
2018-03-29T01:14:29.404Z,0
2018-03-29T01:15:29.175Z,0
2018-03-29T01:16:29.452Z,0
2018-03-29T01:17:29.219Z,0
2018-03-29T01:18:29.232Z,0
2018-03-29T01:19:29.255Z,0
2018-03-29T01:20:29.500Z,0
2018-03-29T01:21:29.879Z,0
2018-03-29T01:22:29.574Z,0
2018-03-29T01:23:29.314Z,0
2018-03-29T01:24:29.832Z,0
2018-03-29T01:25:30.331Z,0
2018-03-29T01:26:29.593Z,0
2018-03-29T01:27:30.148Z,0
2018-03-29T01:28:29.909Z,0
2018-03-29T01:29:30.086Z,0
2018-03-29T01:30:30.583Z,0
2018-03-29T01:31:30.388Z,0
2018-03-29T01:32:30.647Z,0
2018-03-29T01:33:30.941Z,0
2018-03-29T01:34:30.460Z,0
2018-03-29T01:35:31.215Z,0
2018-03-29T01:36:31.249Z,0
2018-03-29T01:37:31.259Z,0
2018-03-29T01:38:31.550Z,0
2018-03-29T01:39:31.308Z,0
2018-03-29T01:40:31.513Z,0
2018-03-29T01:41:31.800Z,0
2018-03-29T01:42:31.899Z,0
2018-03-29T01:43:31.860Z,0
2018-03-29T01:44:31.624Z,0
2018-03-29T01:45:31.369Z,0
2018-03-29T01:46:31.650Z,0
2018-03-29T01:47:31.618Z,0
2018-03-29T01:48:32.166Z,0
2018-03-29T01:49:31.953Z,0
2018-03-29T01:50:32.330Z,0
2018-03-29T01:51:32.280Z,0
2018-03-29T01:52:31.991Z,0
2018-03-29T01:53:32.029Z,0
2018-03-29T01:54:32.058Z,0
2018-03-29T01:55:32.338Z,0
2018-03-29T01:56:32.087Z,0
2018-03-29T01:57:32.419Z,0
2018-03-29T01:58:32.418Z,0
2018-03-29T01:59:32.163Z,0
2018-03-29T02:00:31.600Z,0
2018-03-29T02:01:32.634Z,0
2018-03-29T02:02:33.038Z,0
2018-03-29T02:03:33.405Z,0
2018-03-29T02:04:33.802Z,0
2018-03-29T02:05:33.808Z,0
2018-03-29T02:06:33.842Z,0
2018-03-29T02:07:33.865Z,0
2018-03-29T02:08:33.899Z,0
2018-03-29T02:09:33.924Z,0
2018-03-29T02:10:33.940Z,0
2018-03-29T02:11:33.968Z,0
2018-03-29T02:12:34.104Z,0
2018-03-29T02:13:34.094Z,0
2018-03-29T02:14:34.207Z,0
2018-03-29T02:15:34.581Z,0
2018-03-29T02:16:34.353Z,0
2018-03-29T02:17:35.002Z,0
2018-03-29T02:18:34.755Z,0
2018-03-29T02:19:35.039Z,0
2018-03-29T02:20:35.084Z,0
2018-03-29T02:21:35.187Z,0
2018-03-29T02:22:35.289Z,0
2018-03-29T02:23:35.057Z,0
2018-03-29T02:24:35.713Z,0
2018-03-29T02:25:35.732Z,0
2018-03-29T02:26:35.483Z,0
2018-03-29T02:27:36.134Z,0
2018-03-29T02:28:36.153Z,0
2018-03-29T02:29:35.399Z,0
2018-03-29T02:30:35.924Z,0
2018-03-29T02:31:36.303Z,0
2018-03-29T02:32:36.048Z,0
2018-03-29T02:33:36.463Z,0
2018-03-29T02:34:36.492Z,0
2018-03-29T02:35:35.953Z,0
2018-03-29T02:36:36.545Z,0
2018-03-29T02:37:36.555Z,0
2018-03-29T02:38:36.566Z,0
2018-03-29T02:39:36.701Z,0
2018-03-29T02:40:36.201Z,0
2018-03-29T02:41:36.888Z,0
2018-03-29T02:42:36.922Z,0
2018-03-29T02:43:37.299Z,0
2018-03-29T02:44:37.689Z,0
2018-03-29T02:45:37.692Z,0
2018-03-29T02:46:37.535Z,0
2018-03-29T02:47:38.123Z,0
2018-03-29T02:48:37.877Z,0
2018-03-29T02:49:38.540Z,0
2018-03-29T02:50:38.917Z,0
2018-03-29T02:51:38.422Z,0
2018-03-29T02:52:38.964Z,0
2018-03-29T02:53:38.716Z,0
2018-03-29T02:54:38.996Z,0
2018-03-29T02:55:39.038Z,0
2018-03-29T02:56:39.058Z,0
2018-03-29T02:57:39.078Z,0
2018-03-29T02:58:38.835Z,0
2018-03-29T02:59:39.253Z,0
2018-03-29T03:00:39.910Z,0
2018-03-29T03:01:39.938Z,0
2018-03-29T03:02:39.959Z,0
2018-03-29T03:03:40.072Z,0
2018-03-29T03:04:40.222Z,0
2018-03-29T03:05:40.492Z,0
2018-03-29T03:06:40.780Z,0
2018-03-29T03:07:41.182Z,0
2018-03-29T03:08:41.594Z,0
2018-03-29T03:09:41.604Z,0
2018-03-29T03:10:41.103Z,0
2018-03-29T03:11:41.228Z,0
2018-03-29T03:12:41.792Z,0
2018-03-29T03:13:41.809Z,0
2018-03-29T03:14:41.918Z,0
2018-03-29T03:15:41.694Z,0
2018-03-29T03:16:42.249Z,0
2018-03-29T03:17:42.340Z,0
2018-03-29T03:18:42.995Z,0
2018-03-29T03:19:43.017Z,0
2018-03-29T03:20:43.046Z,0
2018-03-29T03:21:43.176Z,0
2018-03-29T03:22:43.473Z,0
2018-03-29T03:23:43.485Z,0
2018-03-29T03:24:43.247Z,0
2018-03-29T03:25:43.922Z,0
2018-03-29T03:26:43.676Z,0
2018-03-29T03:27:44.346Z,0
2018-03-29T03:28:44.361Z,0
2018-03-29T03:29:44.387Z,0
2018-03-29T03:30:43.910Z,0
2018-03-29T03:31:44.352Z,0
2018-03-29T03:32:44.735Z,0
2018-03-29T03:33:44.511Z,0
2018-03-29T03:34:44.882Z,0
2018-03-29T03:35:44.940Z,0
2018-03-29T03:36:45.024Z,0
2018-03-29T03:37:45.166Z,0
2018-03-29T03:38:45.717Z,0
2018-03-29T03:39:45.813Z,0
2018-03-29T03:40:45.929Z,0
2018-03-29T03:41:46.096Z,0
2018-03-29T03:42:46.313Z,0
2018-03-29T03:43:46.727Z,0
2018-03-29T03:44:47.126Z,0
2018-03-29T03:45:47.487Z,0
2018-03-29T03:46:47.659Z,0
2018-03-29T03:47:48.036Z,0
2018-03-29T03:48:48.429Z,0
2018-03-29T03:49:48.874Z,0
2018-03-29T03:50:48.630Z,0
2018-03-29T03:51:48.835Z,0
2018-03-29T03:52:49.536Z,0
2018-03-29T03:53:49.290Z,0
2018-03-29T03:54:49.947Z,0
2018-03-29T03:55:49.861Z,0
2018-03-29T03:56:49.987Z,0
2018-03-29T03:57:50.625Z,0
2018-03-29T03:58:50.410Z,0
2018-03-29T03:59:50.814Z,0
2018-03-29T04:00:50.562Z,0
2018-03-29T04:01:50.594Z,0
2018-03-29T04:02:50.701Z,0
2018-03-29T04:03:50.568Z,0
2018-03-29T04:04:51.385Z,0
2018-03-29T04:05:51.476Z,0
2018-03-29T04:06:51.226Z,0
2018-03-29T04:07:51.870Z,0
2018-03-29T04:08:51.701Z,0
2018-03-29T04:09:52.244Z,0
2018-03-29T04:10:52.282Z,0
2018-03-29T04:11:52.385Z,0
2018-03-29T04:12:52.400Z,0
2018-03-29T04:13:52.755Z,0
2018-03-29T04:14:52.629Z,0
2018-03-29T04:15:53.020Z,0
2018-03-29T04:16:53.428Z,0
2018-03-29T04:17:52.907Z,0
2018-03-29T04:18:53.187Z,0
2018-03-29T04:19:53.311Z,0
2018-03-29T04:20:53.495Z,4
2018-03-29T04:21:54.161Z,4
2018-03-29T04:22:53.914Z,0
2018-03-29T04:23:54.189Z,0
2018-03-29T04:24:54.039Z,0
2018-03-29T04:25:53.715Z,0
2018-03-29T04:26:54.372Z,0
2018-03-29T04:27:54.517Z,0
2018-03-29T04:28:54.891Z,0
2018-03-29T04:29:55.282Z,0
2018-03-29T04:30:55.371Z,0
2018-03-29T04:31:55.730Z,4
2018-03-29T04:32:55.505Z,4
2018-03-29T04:33:55.895Z,4
2018-03-29T04:34:56.466Z,4
2018-03-29T04:35:55.937Z,4
2018-03-29T04:36:56.322Z,4
2018-03-29T04:37:56.971Z,4
2018-03-29T04:38:56.743Z,4
2018-03-29T04:39:56.821Z,4
2018-03-29T04:40:56.608Z,4
2018-03-29T04:41:57.154Z,4
2018-03-29T04:42:56.917Z,4
2018-03-29T04:43:57.059Z,8
2018-03-29T04:44:57.459Z,4
2018-03-29T04:45:57.210Z,8
2018-03-29T04:46:57.586Z,12
2018-03-29T04:47:57.064Z,20
2018-03-29T04:48:57.365Z,16
2018-03-29T04:49:58.012Z,20
2018-03-29T04:50:58.045Z,20
2018-03-29T04:51:57.871Z,24
2018-03-29T04:52:57.930Z,28
2018-03-29T04:53:58.096Z,24
2018-03-29T04:54:58.095Z,24
2018-03-29T04:55:58.505Z,28
2018-03-29T04:56:58.516Z,24
2018-03-29T04:57:58.529Z,32
2018-03-29T04:58:58.311Z,40
2018-03-29T04:59:58.710Z,56
2018-03-29T05:00:57.984Z,36
2018-03-29T05:01:58.558Z,36
2018-03-29T05:02:58.511Z,44
2018-03-29T05:03:59.085Z,44
2018-03-29T05:04:58.554Z,48
2018-03-29T05:05:59.111Z,48
2018-03-29T05:06:59.329Z,52
2018-03-29T05:07:59.341Z,68
2018-03-29T05:09:00.056Z,72
2018-03-29T05:09:59.387Z,68
2018-03-29T05:10:59.627Z,76
2018-03-29T05:11:59.872Z,80
2018-03-29T05:13:00.109Z,88
2018-03-29T05:14:00.330Z,92
2018-03-29T05:15:00.585Z,92
2018-03-29T05:16:01.033Z,100
2018-03-29T05:17:01.573Z,104
2018-03-29T05:18:01.320Z,124
2018-03-29T05:19:01.526Z,116
2018-03-29T05:20:01.815Z,120
2018-03-29T05:21:01.604Z,132
2018-03-29T05:22:01.092Z,120
2018-03-29T05:23:01.909Z,124
2018-03-29T05:24:01.931Z,128
2018-03-29T05:25:01.941Z,140
2018-03-29T05:26:01.433Z,156
2018-03-29T05:27:01.933Z,160
2018-03-29T05:28:01.970Z,188
2018-03-29T05:29:02.291Z,188
2018-03-29T05:30:02.524Z,212
2018-03-29T05:31:01.822Z,204
2018-03-29T05:32:02.605Z,216
2018-03-29T05:33:02.628Z,228
2018-03-29T05:34:02.393Z,228
2018-03-29T05:35:02.509Z,244
2018-03-29T05:36:03.109Z,232
2018-03-29T05:37:02.856Z,220
2018-03-29T05:38:02.898Z,244
2018-03-29T05:39:02.594Z,252
2018-03-29T05:40:02.720Z,248
2018-03-29T05:41:03.510Z,232
2018-03-29T05:42:03.434Z,248
2018-03-29T05:43:03.419Z,276
2018-03-29T05:44:03.425Z,320
2018-03-29T05:45:03.719Z,308
2018-03-29T05:46:03.554Z,360
2018-03-29T05:47:04.100Z,444
2018-03-29T05:48:04.055Z,480
2018-03-29T05:49:04.360Z,536
2018-03-29T05:50:04.359Z,572
2018-03-29T05:51:04.164Z,532
2018-03-29T05:52:04.696Z,508
2018-03-29T05:53:04.162Z,660
2018-03-29T05:54:04.484Z,624
2018-03-29T05:55:05.052Z,652
2018-03-29T05:56:04.856Z,672
2018-03-29T05:57:04.828Z,756
2018-03-29T05:58:04.633Z,820
2018-03-29T05:59:04.891Z,872
2018-03-29T06:00:11.304Z,1024
2018-03-29T06:01:05.139Z,1000
2018-03-29T06:02:05.188Z,956
2018-03-29T06:03:06.074Z,824
2018-03-29T06:04:05.891Z,1048
2018-03-29T06:05:05.909Z,1052
2018-03-29T06:06:06.130Z,1236
2018-03-29T06:07:05.993Z,1128
2018-03-29T06:08:06.304Z,1108
2018-03-29T06:09:06.445Z,1336
2018-03-29T06:10:07.285Z,1376
2018-03-29T06:11:07.205Z,1128
2018-03-29T06:12:07.166Z,1600
2018-03-29T06:13:06.928Z,1348
2018-03-29T06:14:07.376Z,1328
2018-03-29T06:15:07.640Z,1400
2018-03-29T06:16:08.317Z,1616
2018-03-29T06:17:07.845Z,1352
2018-03-29T06:18:08.507Z,1312
2018-03-29T06:19:08.557Z,1468
2018-03-29T06:20:09.013Z,1592
2018-03-29T06:21:09.084Z,1404
2018-03-29T06:22:09.770Z,1296
2018-03-29T06:23:09.645Z,1256
2018-03-29T06:24:10.168Z,1128
2018-03-29T06:25:10.309Z,1168
2018-03-29T06:26:10.218Z,1032
2018-03-29T06:27:11.023Z,1128
2018-03-29T06:28:10.767Z,1136
2018-03-29T06:29:11.191Z,1016
2018-03-29T06:30:11.207Z,1384
2018-03-29T06:31:11.705Z,1200
2018-03-29T06:32:12.116Z,1440
2018-03-29T06:33:12.241Z,1728
2018-03-29T06:34:12.669Z,1888
2018-03-29T06:35:12.676Z,2032
2018-03-29T06:36:12.713Z,1872
2018-03-29T06:37:12.846Z,1724
2018-03-29T06:38:12.584Z,1888
2018-03-29T06:39:12.717Z,2076
2018-03-29T06:40:13.165Z,2040
2018-03-29T06:41:13.833Z,1948
2018-03-29T06:42:13.601Z,1896
2018-03-29T06:43:13.506Z,2136
2018-03-29T06:44:14.011Z,2224
2018-03-29T06:45:14.312Z,2092
2018-03-29T06:46:14.734Z,1864
2018-03-29T06:47:14.456Z,2044
2018-03-29T06:48:14.892Z,1956
2018-03-29T06:49:15.284Z,1756
2018-03-29T06:50:15.559Z,1804
2018-03-29T06:51:15.322Z,1840
2018-03-29T06:52:15.735Z,1932
2018-03-29T06:53:16.010Z,1956
2018-03-29T06:54:16.140Z,1712
2018-03-29T06:55:15.660Z,2024
2018-03-29T06:56:16.210Z,2068
2018-03-29T06:57:16.211Z,2756
2018-03-29T06:58:16.258Z,2732
2018-03-29T06:59:16.651Z,2212
2018-03-29T07:00:16.759Z,2276
2018-03-29T07:01:16.922Z,2144
2018-03-29T07:02:16.688Z,1900
2018-03-29T07:03:17.319Z,2100
2018-03-29T07:04:17.052Z,2144
2018-03-29T07:05:17.624Z,2360
2018-03-29T07:06:17.675Z,2324
2018-03-29T07:07:17.415Z,2308
2018-03-29T07:08:17.711Z,2220
2018-03-29T07:09:17.463Z,2052
2018-03-29T07:10:17.208Z,2412
2018-03-29T07:11:18.074Z,2324
2018-03-29T07:12:18.122Z,2480
2018-03-29T07:13:18.144Z,2500
2018-03-29T07:14:17.955Z,2284
2018-03-29T07:15:17.918Z,2184
2018-03-29T07:16:17.714Z,2548
2018-03-29T07:17:18.321Z,2484
2018-03-29T07:18:18.064Z,2584
2018-03-29T07:19:17.832Z,2920
2018-03-29T07:20:18.162Z,2508
2018-03-29T07:21:18.478Z,2876
2018-03-29T07:22:18.513Z,3436
2018-03-29T07:23:18.249Z,3504
2018-03-29T07:24:18.572Z,3928
2018-03-29T07:25:18.309Z,3360
2018-03-29T07:26:18.632Z,3708
2018-03-29T07:27:18.653Z,3452
2018-03-29T07:28:18.403Z,3332
2018-03-29T07:29:18.195Z,3176
2018-03-29T07:30:19.030Z,3544
2018-03-29T07:31:19.044Z,3576
2018-03-29T07:32:18.809Z,3788
2018-03-29T07:33:18.557Z,3616
2018-03-29T07:34:18.883Z,4336
2018-03-29T07:35:19.206Z,4148
2018-03-29T07:36:19.244Z,3664
2018-03-29T07:37:19.544Z,4140
2018-03-29T07:38:19.013Z,4216
2018-03-29T07:39:19.608Z,4400
2018-03-29T07:40:19.084Z,5420
2018-03-29T07:41:19.952Z,4424
2018-03-29T07:42:19.969Z,5668
2018-03-29T07:43:19.747Z,5812
2018-03-29T07:44:20.191Z,6788
2018-03-29T07:45:20.085Z,6092
2018-03-29T07:46:19.842Z,6180
2018-03-29T07:47:20.187Z,5484
2018-03-29T07:48:20.174Z,3584
2018-03-29T07:49:19.946Z,3764
2018-03-29T07:50:20.221Z,4212
2018-03-29T07:51:20.264Z,2936
2018-03-29T07:52:20.286Z,3232
2018-03-29T07:53:19.876Z,3364
2018-03-29T07:54:20.337Z,3724
2018-03-29T07:55:20.086Z,3524
2018-03-29T07:56:20.666Z,3184
2018-03-29T07:57:20.431Z,2748
2018-03-29T07:58:20.754Z,2672
2018-03-29T07:59:20.775Z,2736
2018-03-29T08:00:20.607Z,2444
2018-03-29T08:01:20.913Z,2064
2018-03-29T08:02:20.948Z,1928
2018-03-29T08:03:21.291Z,2160
2018-03-29T08:04:21.052Z,2108
2018-03-29T08:05:21.626Z,2464
2018-03-29T08:06:21.637Z,2628
2018-03-29T08:07:21.065Z,2740
2018-03-29T08:08:20.939Z,2088
2018-03-29T08:09:21.608Z,2428
2018-03-29T08:10:21.921Z,2472
2018-03-29T08:11:21.332Z,2680
2018-03-29T08:12:21.827Z,2548
2018-03-29T08:13:21.861Z,2676
2018-03-29T08:14:21.733Z,2608
2018-03-29T08:15:22.724Z,3128
2018-03-29T08:16:22.235Z,3368
2018-03-29T08:17:23.715Z,3264
2018-03-29T08:18:23.266Z,2776
2018-03-29T08:19:22.924Z,3408
2018-03-29T08:20:22.837Z,3360
2018-03-29T08:21:23.492Z,3556
2018-03-29T08:22:22.148Z,3860
2018-03-29T08:23:23.373Z,3616
2018-03-29T08:24:23.372Z,3236
2018-03-29T08:25:23.194Z,3292
2018-03-29T08:26:23.027Z,2820
2018-03-29T08:27:23.269Z,2700
2018-03-29T08:28:23.128Z,3556
2018-03-29T08:29:23.441Z,3128
2018-03-29T08:30:23.522Z,2672
2018-03-29T08:31:23.874Z,2736
2018-03-29T08:32:23.333Z,2904
2018-03-29T08:33:23.970Z,2772
2018-03-29T08:34:24.315Z,2476
2018-03-29T08:35:24.317Z,2320
2018-03-29T08:36:24.020Z,2300
2018-03-29T08:37:24.107Z,2392
2018-03-29T08:38:24.705Z,2644
2018-03-29T08:39:24.294Z,2516
2018-03-29T08:40:24.903Z,2424
2018-03-29T08:41:24.960Z,2264
2018-03-29T08:42:25.054Z,2592
2018-03-29T08:43:25.047Z,2544
2018-03-29T08:44:25.036Z,2676
2018-03-29T08:45:25.956Z,3020
2018-03-29T08:46:24.991Z,3144
2018-03-29T08:47:25.748Z,3300
2018-03-29T08:48:26.074Z,4192
2018-03-29T08:49:25.825Z,3640
2018-03-29T08:50:26.280Z,2792
2018-03-29T08:51:27.177Z,2804
2018-03-29T08:52:26.918Z,2928
2018-03-29T08:53:26.132Z,2828
2018-03-29T08:54:27.511Z,3532
2018-03-29T08:55:26.953Z,4608
2018-03-29T08:56:26.799Z,3760
2018-03-29T08:57:27.575Z,4344
2018-03-29T08:58:26.519Z,3612
2018-03-29T08:59:28.852Z,2472
2018-03-29T09:00:26.851Z,2216
2018-03-29T09:01:26.906Z,2836
2018-03-29T09:02:27.052Z,3108
2018-03-29T09:03:28.010Z,2848
2018-03-29T09:04:28.239Z,2408
2018-03-29T09:05:28.469Z,2344
2018-03-29T09:06:28.553Z,2060
2018-03-29T09:07:27.353Z,2172
2018-03-29T09:08:27.996Z,3976
2018-03-29T09:09:27.873Z,5780
2018-03-29T09:10:27.890Z,6792
2018-03-29T09:11:28.131Z,7152
2018-03-29T09:12:27.521Z,6960
2018-03-29T09:13:27.835Z,12796
2018-03-29T09:14:28.267Z,12484
2018-03-29T09:15:28.462Z,8256
2018-03-29T09:16:28.180Z,7352
2018-03-29T09:17:27.716Z,6416
2018-03-29T09:18:30.079Z,6976
2018-03-29T09:19:28.671Z,10008
2018-03-29T09:20:28.090Z,9852
2018-03-29T09:21:28.905Z,10424
2018-03-29T09:22:28.932Z,11588
2018-03-29T09:23:28.710Z,11152
2018-03-29T09:24:28.813Z,8912
2018-03-29T09:25:29.104Z,9208
2018-03-29T09:26:28.858Z,8004
2018-03-29T09:27:28.565Z,8772
2018-03-29T09:28:29.276Z,11208
2018-03-29T09:29:29.343Z,6996
2018-03-29T09:30:30.092Z,8668
2018-03-29T09:31:30.180Z,8308
2018-03-29T09:32:30.744Z,6984
2018-03-29T09:33:31.052Z,8028
2018-03-29T09:34:30.880Z,8748
2018-03-29T09:35:31.212Z,5832
2018-03-29T09:36:31.122Z,4948
2018-03-29T09:37:31.178Z,4460
2018-03-29T09:38:30.779Z,4012
2018-03-29T09:39:30.823Z,3740
2018-03-29T09:40:31.442Z,5312
2018-03-29T09:41:30.819Z,9572
2018-03-29T09:42:30.391Z,7632
2018-03-29T09:43:31.265Z,11128
2018-03-29T09:44:31.659Z,14912
2018-03-29T09:45:31.573Z,12348
2018-03-29T09:46:31.417Z,14044
2018-03-29T09:47:31.673Z,21344
2018-03-29T09:48:31.492Z,45184
2018-03-29T09:49:31.507Z,41664
2018-03-29T09:50:31.799Z,16416
2018-03-29T09:51:32.103Z,20544
2018-03-29T09:52:32.117Z,32800
2018-03-29T09:53:32.405Z,10040
2018-03-29T09:54:31.853Z,28032
2018-03-29T09:55:33.096Z,8860
2018-03-29T09:56:32.721Z,52352
2018-03-29T09:57:33.161Z,24640
2018-03-29T09:58:34.007Z,32064
2018-03-29T09:59:33.569Z,32256
2018-03-29T10:00:32.948Z,12976
2018-03-29T10:01:32.453Z,29536
2018-03-29T10:02:33.035Z,9316
2018-03-29T10:03:33.374Z,17376
2018-03-29T10:04:33.784Z,12736
2018-03-29T10:05:33.449Z,8900
2018-03-29T10:06:33.239Z,7548
2018-03-29T10:07:33.800Z,6508
2018-03-29T10:08:33.588Z,5048
2018-03-29T10:09:34.159Z,4224
2018-03-29T10:10:33.905Z,3556
2018-03-29T10:11:33.949Z,3068
2018-03-29T10:12:34.260Z,3016
2018-03-29T10:13:33.999Z,2788
2018-03-29T10:14:34.308Z,3336
2018-03-29T10:15:34.070Z,3504
2018-03-29T10:16:34.077Z,3564
2018-03-29T10:17:34.126Z,3784
2018-03-29T10:18:34.433Z,3412
2018-03-29T10:19:34.466Z,3292
2018-03-29T10:20:34.527Z,2736
2018-03-29T10:21:34.288Z,2768
2018-03-29T10:22:34.588Z,3124
2018-03-29T10:23:34.610Z,3092
2018-03-29T10:24:34.646Z,2844
2018-03-29T10:25:34.675Z,3104
2018-03-29T10:26:34.149Z,2976
2018-03-29T10:27:34.731Z,3708
2018-03-29T10:28:34.747Z,3956
2018-03-29T10:29:34.237Z,4848
2018-03-29T10:30:34.568Z,4912
2018-03-29T10:31:34.589Z,4560
2018-03-29T10:32:34.655Z,4556
2018-03-29T10:33:34.948Z,4508
2018-03-29T10:34:34.719Z,6440
2018-03-29T10:35:34.745Z,6496
2018-03-29T10:36:35.610Z,4772
2018-03-29T10:37:34.839Z,4320
2018-03-29T10:38:35.449Z,3780
2018-03-29T10:39:35.506Z,3260
2018-03-29T10:40:36.369Z,3236
2018-03-29T10:41:35.866Z,3452
2018-03-29T10:42:35.903Z,3208
2018-03-29T10:43:36.285Z,3108
2018-03-29T10:44:36.603Z,3192
2018-03-29T10:45:36.346Z,3596
2018-03-29T10:46:36.759Z,5980
2018-03-29T10:47:36.676Z,10764
2018-03-29T10:48:36.423Z,9472
2018-03-29T10:49:36.718Z,9928
2018-03-29T10:50:36.759Z,7084
2018-03-29T10:51:36.509Z,6232
2018-03-29T10:52:36.295Z,6100
2018-03-29T10:53:37.164Z,7012
2018-03-29T10:54:36.913Z,7268
2018-03-29T10:55:37.263Z,6656
2018-03-29T10:56:37.603Z,7152
2018-03-29T10:57:37.634Z,9280
2018-03-29T10:58:37.940Z,10232
2018-03-29T10:59:37.691Z,9104
2018-03-29T11:00:37.856Z,8752
2018-03-29T11:01:38.264Z,8316
2018-03-29T11:02:38.420Z,7628
2018-03-29T11:03:38.561Z,7476
2018-03-29T11:04:38.690Z,7436
2018-03-29T11:05:38.571Z,6992
2018-03-29T11:06:39.116Z,8072
2018-03-29T11:07:39.791Z,8656
2018-03-29T11:08:39.792Z,9736
2018-03-29T11:09:39.821Z,11264
2018-03-29T11:10:39.877Z,9248
2018-03-29T11:11:39.613Z,7636
2018-03-29T11:12:39.762Z,6996
2018-03-29T11:13:39.907Z,6344
2018-03-29T11:14:40.564Z,5288
2018-03-29T11:15:40.332Z,5316
2018-03-29T11:16:40.698Z,5960
2018-03-29T11:17:40.183Z,5396
2018-03-29T11:18:40.759Z,5656
2018-03-29T11:19:40.774Z,5772
2018-03-29T11:20:41.181Z,5428
2018-03-29T11:21:41.325Z,6040
2018-03-29T11:22:41.378Z,6488
2018-03-29T11:23:41.511Z,5092
2018-03-29T11:24:41.919Z,4784
2018-03-29T11:25:41.941Z,4936
2018-03-29T11:26:41.707Z,4572
2018-03-29T11:27:42.128Z,4540
2018-03-29T11:28:42.286Z,4628
2018-03-29T11:29:43.003Z,5424
2018-03-29T11:30:42.849Z,5492
2018-03-29T11:31:43.402Z,6464
2018-03-29T11:32:43.187Z,7964
2018-03-29T11:33:43.343Z,7840
2018-03-29T11:34:43.631Z,6396
2018-03-29T11:35:43.919Z,6504
2018-03-29T11:36:43.671Z,5732
2018-03-29T11:37:44.074Z,5504
2018-03-29T11:38:43.848Z,6048
2018-03-29T11:39:44.551Z,5748
2018-03-29T11:40:44.591Z,5400
2018-03-29T11:41:44.596Z,4628
2018-03-29T11:42:44.640Z,5040
2018-03-29T11:43:44.501Z,4804
2018-03-29T11:44:44.908Z,4160
2018-03-29T11:45:44.904Z,4024
2018-03-29T11:46:45.575Z,5988
2018-03-29T11:47:45.586Z,6128
2018-03-29T11:48:45.131Z,5492
2018-03-29T11:49:45.528Z,3976
2018-03-29T11:50:45.808Z,3636
2018-03-29T11:51:45.960Z,4716
2018-03-29T11:52:46.107Z,5140
2018-03-29T11:53:46.644Z,5256
2018-03-29T11:54:46.766Z,5172
2018-03-29T11:55:47.181Z,5392
2018-03-29T11:56:47.337Z,5156
2018-03-29T11:57:47.758Z,4916
2018-03-29T11:58:48.172Z,5336
2018-03-29T11:59:48.050Z,5152
2018-03-29T12:00:48.926Z,5536
2018-03-29T12:01:48.959Z,5448
2018-03-29T12:02:49.002Z,5412
2018-03-29T12:03:49.013Z,5028
2018-03-29T12:04:49.035Z,5004
2018-03-29T12:05:49.253Z,4996
2018-03-29T12:06:49.374Z,4792
2018-03-29T12:07:49.526Z,5212
2018-03-29T12:08:49.814Z,5192
2018-03-29T12:09:49.949Z,5040
2018-03-29T12:10:50.518Z,4920
2018-03-29T12:11:50.669Z,4748
2018-03-29T12:12:50.715Z,5228
2018-03-29T12:13:51.380Z,5616
2018-03-29T12:14:52.024Z,5668
2018-03-29T12:15:51.254Z,5764
2018-03-29T12:16:51.836Z,6028
2018-03-29T12:17:51.977Z,6112
2018-03-29T12:18:52.032Z,6736
2018-03-29T12:19:52.429Z,6968
2018-03-29T12:20:52.726Z,6932
2018-03-29T12:21:52.456Z,6556
2018-03-29T12:22:52.871Z,6272
2018-03-29T12:23:53.283Z,5972
2018-03-29T12:24:52.995Z,5968
2018-03-29T12:25:53.382Z,5864
2018-03-29T12:26:53.420Z,5992
2018-03-29T12:27:53.578Z,6140
2018-03-29T12:28:54.248Z,6096
2018-03-29T12:29:54.095Z,5600
2018-03-29T12:30:54.676Z,5568
2018-03-29T12:31:54.150Z,5152
2018-03-29T12:32:54.463Z,4976
2018-03-29T12:33:54.846Z,4432
2018-03-29T12:34:55.206Z,4268
2018-03-29T12:35:55.330Z,4276
2018-03-29T12:36:55.734Z,4968
2018-03-29T12:37:55.874Z,5280
2018-03-29T12:38:55.877Z,5156
2018-03-29T12:39:55.662Z,5252
2018-03-29T12:40:55.500Z,5340
2018-03-29T12:41:55.819Z,5708
2018-03-29T12:42:55.960Z,5916
2018-03-29T12:43:56.363Z,6384
2018-03-29T12:44:56.271Z,6600
2018-03-29T12:45:56.515Z,6416
2018-03-29T12:46:56.748Z,6040
2018-03-29T12:47:56.043Z,5888
2018-03-29T12:48:56.175Z,5440
2018-03-29T12:49:56.484Z,5072
2018-03-29T12:50:57.144Z,4956
2018-03-29T12:51:56.980Z,4560
2018-03-29T12:52:57.170Z,4332
2018-03-29T12:53:57.639Z,4288
2018-03-29T12:54:57.557Z,4388
2018-03-29T12:55:57.957Z,4540
2018-03-29T12:56:57.957Z,4448
2018-03-29T12:57:58.067Z,3692
2018-03-29T12:58:58.492Z,3136
2018-03-29T12:59:58.250Z,2636
2018-03-29T13:00:58.564Z,2300
2018-03-29T13:01:58.595Z,2080
2018-03-29T13:02:58.616Z,2064
2018-03-29T13:03:58.651Z,2820
2018-03-29T13:04:58.927Z,3792
2018-03-29T13:05:59.123Z,4012
2018-03-29T13:06:58.465Z,4476
2018-03-29T13:07:59.335Z,4588
2018-03-29T13:09:00.555Z,4396
2018-03-29T13:09:59.503Z,4436
2018-03-29T13:11:00.530Z,5032
2018-03-29T13:11:59.145Z,5828
2018-03-29T13:12:59.322Z,6464
2018-03-29T13:13:58.964Z,6720
2018-03-29T13:14:59.709Z,6388
2018-03-29T13:15:59.215Z,5728
2018-03-29T13:16:59.028Z,5888
2018-03-29T13:17:59.975Z,6076
2018-03-29T13:19:00.190Z,5988
2018-03-29T13:19:59.774Z,5836
2018-03-29T13:20:59.459Z,5528
2018-03-29T13:22:00.324Z,5136
2018-03-29T13:22:59.592Z,5112
2018-03-29T13:24:00.172Z,5356
2018-03-29T13:24:59.924Z,5100
2018-03-29T13:26:00.234Z,4988
2018-03-29T13:26:59.969Z,4632
2018-03-29T13:28:00.574Z,3696
2018-03-29T13:29:00.586Z,2700
2018-03-29T13:30:00.995Z,2220
2018-03-29T13:31:01.431Z,1908
2018-03-29T13:32:02.026Z,1552
2018-03-29T13:33:02.104Z,1168
2018-03-29T13:34:02.104Z,1004
2018-03-29T13:35:01.840Z,968
2018-03-29T13:36:01.663Z,1084
2018-03-29T13:37:01.929Z,1364
2018-03-29T13:38:02.527Z,1756
2018-03-29T13:39:02.862Z,2036
2018-03-29T13:40:02.623Z,1680
2018-03-29T13:41:03.214Z,1624
2018-03-29T13:42:03.229Z,1580
2018-03-29T13:43:03.330Z,1532
2018-03-29T13:44:03.128Z,1912
2018-03-29T13:45:03.177Z,2800
2018-03-29T13:46:03.859Z,2860
2018-03-29T13:47:04.220Z,3124
2018-03-29T13:48:03.923Z,4176
2018-03-29T13:49:04.250Z,4472
2018-03-29T13:50:04.267Z,4128
2018-03-29T13:51:04.299Z,3500